createdAt,value
2023-01-25T00:01:41.668Z,14.20
2023-01-25T00:04:14.314Z,13.60
2023-01-25T00:06:47.288Z,12.88
2023-01-25T00:09:18.408Z,14.65
2023-01-25T00:11:57.326Z,14.70
2023-01-25T00:14:30.656Z,16.90
2023-01-25T00:17:01.014Z,11.77
2023-01-25T00:19:33.759Z,13.23
2023-01-25T00:22:06.760Z,10.77
2023-01-25T00:24:37.569Z,14.93
2023-01-25T00:27:07.816Z,13.57
2023-01-25T00:29:38.217Z,12.43
2023-01-25T00:32:36.998Z,11.27
2023-01-25T00:35:08.475Z,11.00
2023-01-25T00:37:47.023Z,10.68
2023-01-25T00:40:19.884Z,8.57
2023-01-25T00:42:50.165Z,13.00
2023-01-25T00:45:24.883Z,12.05
2023-01-25T00:47:57.767Z,12.02
2023-01-25T00:50:29.297Z,12.68
2023-01-25T00:53:02.311Z,11.75
2023-01-25T00:55:32.912Z,16.30
2023-01-25T00:58:05.561Z,13.05
2023-01-25T01:00:36.307Z,14.80
2023-01-25T01:03:09.578Z,18.75
2023-01-25T01:05:40.028Z,15.75
2023-01-25T01:08:19.648Z,16.02
2023-01-25T01:10:49.874Z,13.07
2023-01-25T01:13:20.084Z,13.63
2023-01-25T01:15:50.556Z,18.75
2023-01-25T01:18:20.680Z,21.65
2023-01-25T01:20:53.900Z,22.52
2023-01-25T01:23:26.878Z,18.80
2023-01-25T01:25:57.094Z,16.38
2023-01-25T01:28:27.410Z,15.95
2023-01-25T01:31:02.307Z,14.15
2023-01-25T01:33:35.186Z,18.83
2023-01-25T01:36:10.738Z,17.63
2023-01-25T01:38:44.012Z,16.17
2023-01-25T01:41:14.958Z,17.42
2023-01-25T01:43:46.057Z,18.02
2023-01-25T01:46:20.026Z,14.18
2023-01-25T01:51:26.161Z,14.35
2023-01-25T01:56:37.614Z,10.70
2023-01-25T01:59:08.595Z,16.13
2023-01-25T02:01:39.363Z,14.20
2023-01-25T02:04:11.280Z,12.65
2023-01-25T02:06:49.013Z,14.27
2023-01-25T02:09:26.183Z,17.73
2023-01-25T02:11:57.629Z,14.80
2023-01-25T02:14:30.129Z,18.73
2023-01-25T02:17:01.838Z,18.95
2023-01-25T02:19:42.753Z,20.45
2023-01-25T02:22:16.586Z,18.85
2023-01-25T02:24:56.709Z,18.35
2023-01-25T02:27:29.802Z,18.88
2023-01-25T02:30:04.620Z,21.15
2023-01-25T02:32:37.157Z,20.00
2023-01-25T02:35:09.044Z,23.05
2023-01-25T02:37:39.809Z,20.00
2023-01-25T02:40:13.674Z,21.98
2023-01-25T02:42:48.780Z,19.77
2023-01-25T02:45:25.574Z,21.27
2023-01-25T02:47:55.812Z,16.88
2023-01-25T02:50:27.954Z,17.13
2023-01-25T02:52:58.613Z,22.27
2023-01-25T02:55:28.933Z,22.85
2023-01-25T02:58:01.849Z,21.98
2023-01-25T03:00:33.011Z,22.77
2023-01-25T03:03:03.473Z,18.00
2023-01-25T03:05:33.761Z,22.15
2023-01-25T03:08:04.050Z,19.55
2023-01-25T03:10:34.889Z,26.13
2023-01-25T03:13:07.679Z,19.40
2023-01-25T03:15:37.986Z,20.67
2023-01-25T03:18:08.308Z,19.65
2023-01-25T03:20:40.497Z,20.65
2023-01-25T03:23:10.873Z,20.92
2023-01-25T03:25:41.177Z,20.02
2023-01-25T03:28:14.146Z,21.52
2023-01-25T03:30:44.388Z,24.00
2023-01-25T03:33:14.628Z,18.75
2023-01-25T03:35:44.786Z,21.30
2023-01-25T03:38:15.016Z,19.60
2023-01-25T03:40:45.334Z,19.05
2023-01-25T03:43:19.056Z,17.98
2023-01-25T03:45:49.686Z,20.58
2023-01-25T03:48:19.934Z,15.18
2023-01-25T03:50:53.013Z,18.48
2023-01-25T03:53:33.086Z,17.90
2023-01-25T03:56:05.209Z,19.70
2023-01-25T03:58:39.511Z,17.35
2023-01-25T04:01:11.259Z,19.65
2023-01-25T04:03:41.734Z,18.88
2023-01-25T04:06:12.209Z,22.17
2023-01-25T04:08:42.609Z,16.88
2023-01-25T04:11:13.721Z,18.00
2023-01-25T04:13:46.637Z,19.23
2023-01-25T04:16:18.332Z,16.15
2023-01-25T04:18:48.772Z,19.80
2023-01-25T04:21:22.050Z,18.80
2023-01-25T04:23:52.430Z,17.52
2023-01-25T04:26:22.538Z,20.38
2023-01-25T04:28:55.596Z,16.67
2023-01-25T04:31:26.092Z,17.87
2023-01-25T04:33:56.530Z,19.00
2023-01-25T04:36:26.776Z,19.70
2023-01-25T04:38:56.939Z,23.80
2023-01-25T04:41:29.563Z,24.45
2023-01-25T04:44:02.295Z,15.50
2023-01-25T04:46:32.634Z,23.80
2023-01-25T04:49:02.897Z,19.35
2023-01-25T04:51:33.268Z,20.75
2023-01-25T04:54:03.587Z,22.60
2023-01-25T04:56:33.759Z,18.98
2023-01-25T04:59:08.101Z,21.70
2023-01-25T05:01:38.317Z,20.77
2023-01-25T05:04:08.713Z,27.65
2023-01-25T05:06:38.976Z,22.27
2023-01-25T05:09:09.774Z,17.30
2023-01-25T05:11:39.984Z,18.88
2023-01-25T05:14:13.000Z,17.65
2023-01-25T05:16:43.381Z,17.90
2023-01-25T05:19:14.236Z,20.65
2023-01-25T05:21:56.819Z,19.10
2023-01-25T05:24:27.383Z,18.75
2023-01-25T05:27:04.045Z,21.45
2023-01-25T05:29:39.983Z,26.10
2023-01-25T05:32:12.956Z,20.15
2023-01-25T05:34:43.646Z,24.13
2023-01-25T05:37:15.351Z,19.65
2023-01-25T05:39:46.388Z,18.67
2023-01-25T05:42:17.891Z,18.55
2023-01-25T05:44:54.919Z,19.55
2023-01-25T05:47:25.194Z,20.27
2023-01-25T05:49:57.443Z,22.20
2023-01-25T05:52:27.713Z,24.38
2023-01-25T05:54:58.038Z,22.90
2023-01-25T05:57:29.132Z,24.38
2023-01-25T06:00:02.467Z,19.08
2023-01-25T06:02:35.413Z,18.10
2023-01-25T06:05:05.807Z,16.55
2023-01-25T06:07:37.667Z,23.05
2023-01-25T06:10:11.939Z,19.45
2023-01-25T06:12:42.767Z,19.20
2023-01-25T06:15:15.771Z,24.40
2023-01-25T06:17:46.088Z,15.57
2023-01-25T06:20:17.617Z,15.93
2023-01-25T06:22:52.631Z,18.77
2023-01-25T06:25:22.960Z,13.50
2023-01-25T06:27:53.194Z,15.95
2023-01-25T06:30:26.680Z,18.40
2023-01-25T06:32:56.806Z,18.65
2023-01-25T06:35:27.554Z,18.58
2023-01-25T06:38:00.604Z,16.35
2023-01-25T06:40:32.015Z,18.15
2023-01-25T06:43:09.403Z,16.80
2023-01-25T06:45:42.500Z,18.50
2023-01-25T06:48:13.004Z,18.45
2023-01-25T06:50:44.262Z,18.10
2023-01-25T06:53:14.437Z,17.20
2023-01-25T06:55:44.714Z,22.58
2023-01-25T06:58:15.210Z,21.73
2023-01-25T07:00:49.431Z,22.00
2023-01-25T07:03:19.711Z,18.25
2023-01-25T07:05:51.221Z,22.60
2023-01-25T07:08:21.744Z,21.77
2023-01-25T07:10:58.133Z,21.65
2023-01-25T07:13:29.764Z,22.25
2023-01-25T07:16:06.304Z,22.23
2023-01-25T07:18:37.803Z,21.55
2023-01-25T07:21:09.553Z,26.55
2023-01-25T07:23:40.327Z,23.95
2023-01-25T07:26:19.513Z,22.35
2023-01-25T07:28:50.939Z,21.52
2023-01-25T07:31:24.314Z,19.98
2023-01-25T07:33:56.220Z,18.40
2023-01-25T07:36:28.830Z,15.05
2023-01-25T07:39:00.749Z,19.08
2023-01-25T07:41:31.094Z,19.27
2023-01-25T07:44:01.458Z,22.33
2023-01-25T07:46:34.443Z,22.20
2023-01-25T07:49:04.829Z,23.00
2023-01-25T07:51:35.094Z,17.05
2023-01-25T07:54:07.216Z,19.92
2023-01-25T07:56:40.780Z,21.17
2023-01-25T07:59:14.381Z,20.40
2023-01-25T08:01:47.429Z,20.88
2023-01-25T08:04:17.677Z,24.45
2023-01-25T08:06:47.938Z,21.48
2023-01-25T08:09:21.433Z,22.42
2023-01-25T08:11:53.721Z,18.83
2023-01-25T08:14:25.033Z,20.73
2023-01-25T08:17:01.967Z,18.75
2023-01-25T08:19:32.524Z,21.75
2023-01-25T08:22:02.779Z,21.77
2023-01-25T08:24:33.302Z,22.08
2023-01-25T08:27:03.607Z,23.38
2023-01-25T08:29:33.852Z,19.63
2023-01-25T08:32:08.361Z,22.33
2023-01-25T08:34:41.513Z,18.33
2023-01-25T08:37:11.827Z,17.33
2023-01-25T08:39:43.259Z,16.30
2023-01-25T08:42:13.826Z,21.88
2023-01-25T08:44:44.113Z,15.20
2023-01-25T08:47:17.006Z,16.95
2023-01-25T08:49:47.257Z,14.75
2023-01-25T08:52:17.685Z,14.77
2023-01-25T08:54:48.004Z,13.98
2023-01-25T08:57:18.213Z,14.48
2023-01-25T08:59:49.417Z,14.80
2023-01-25T09:02:22.235Z,14.60
2023-01-25T09:04:52.761Z,14.20
2023-01-25T09:07:22.937Z,13.45
2023-01-25T09:09:57.314Z,13.15
2023-01-25T09:12:27.842Z,12.07
2023-01-25T09:14:58.514Z,12.05
2023-01-25T09:17:31.238Z,9.90
2023-01-25T09:20:02.217Z,10.45
2023-01-25T09:22:32.685Z,8.45
2023-01-25T09:25:03.009Z,8.60
2023-01-25T09:27:33.310Z,7.07
2023-01-25T09:30:13.501Z,4.13
2023-01-25T09:32:52.419Z,4.63
2023-01-25T09:35:23.093Z,5.80
2023-01-25T09:37:54.521Z,6.18
2023-01-25T09:40:27.050Z,6.05
2023-01-25T09:43:06.120Z,4.05
2023-01-25T09:45:37.811Z,5.05
2023-01-25T09:48:17.608Z,4.95
2023-01-25T09:51:12.055Z,5.53
2023-01-25T09:53:43.958Z,4.70
2023-01-25T09:56:23.806Z,4.50
2023-01-25T09:58:56.310Z,4.97
2023-01-25T10:01:39.053Z,4.03
2023-01-25T10:04:18.812Z,4.18
2023-01-25T10:07:00.011Z,4.50
2023-01-25T10:09:42.735Z,5.80
2023-01-25T10:12:19.430Z,5.28
2023-01-25T10:14:50.044Z,4.78
2023-01-25T10:17:28.765Z,5.25
2023-01-25T10:20:18.564Z,4.88
2023-01-25T10:22:55.136Z,4.95
2023-01-25T10:25:39.185Z,3.95
2023-01-25T10:28:24.721Z,4.50
2023-01-25T10:31:00.840Z,5.15
2023-01-25T10:33:36.647Z,5.57
2023-01-25T10:36:16.071Z,6.13
2023-01-25T10:38:49.280Z,6.97
2023-01-25T10:41:25.114Z,4.90
2023-01-25T10:44:15.523Z,5.47
2023-01-25T10:46:52.165Z,8.82
2023-01-25T10:49:28.913Z,6.10
2023-01-25T10:52:16.320Z,5.03
2023-01-25T10:54:47.291Z,2.85
2023-01-25T10:57:21.042Z,5.90
2023-01-25T10:59:58.862Z,6.80
2023-01-25T11:02:48.600Z,5.07
2023-01-25T11:05:28.756Z,4.60
2023-01-25T11:08:18.043Z,4.55
2023-01-25T11:10:49.240Z,4.47
2023-01-25T11:13:25.548Z,5.43
2023-01-25T11:16:17.482Z,4.97
2023-01-25T11:18:54.364Z,5.82
2023-01-25T11:21:26.394Z,4.30
2023-01-25T11:24:20.408Z,4.22
2023-01-25T11:26:50.937Z,4.90
2023-01-25T11:29:26.554Z,5.70
2023-01-25T11:31:59.322Z,5.85
2023-01-25T11:34:31.586Z,6.00
2023-01-25T11:37:23.266Z,4.20
2023-01-25T11:40:06.903Z,5.25
2023-01-25T11:42:52.383Z,6.35
2023-01-25T11:45:48.769Z,6.00
2023-01-25T11:48:43.877Z,6.22
2023-01-25T11:51:21.998Z,6.28
2023-01-25T11:54:25.821Z,5.88
2023-01-25T11:57:03.325Z,8.38
2023-01-25T11:59:55.199Z,9.52
2023-01-25T12:03:00.663Z,6.07
2023-01-25T12:05:47.074Z,8.20
2023-01-25T12:08:33.867Z,6.15
2023-01-25T12:11:12.531Z,8.35
2023-01-25T12:14:00.407Z,6.88
2023-01-25T12:16:51.580Z,5.93
2023-01-25T12:19:34.767Z,5.05
2023-01-25T12:22:48.845Z,5.85
2023-01-25T12:25:31.178Z,5.13
2023-01-25T12:28:10.870Z,8.50
2023-01-25T12:30:51.399Z,6.10
2023-01-25T12:33:25.502Z,8.63
2023-01-25T12:36:00.777Z,6.72
2023-01-25T12:38:38.719Z,8.98
2023-01-25T12:41:19.185Z,8.45
2023-01-25T12:43:55.645Z,10.13
2023-01-25T12:46:33.658Z,8.07
2023-01-25T12:49:14.932Z,3.35
2023-01-25T12:51:47.035Z,5.63
2023-01-25T12:54:22.891Z,5.13
2023-01-25T12:57:03.077Z,5.20
2023-01-25T12:59:40.489Z,5.20
2023-01-25T13:02:31.178Z,6.00
2023-01-25T13:05:14.651Z,5.82
2023-01-25T13:07:54.580Z,10.43
2023-01-25T13:10:29.486Z,5.18
2023-01-25T13:13:05.652Z,6.30
2023-01-25T13:15:44.379Z,6.15
2023-01-25T13:18:47.298Z,7.15
2023-01-25T13:21:45.241Z,3.85
2023-01-25T13:24:19.030Z,4.45
2023-01-25T13:27:04.002Z,5.15
2023-01-25T13:29:59.145Z,5.28
2023-01-25T13:32:59.655Z,5.22
2023-01-25T13:35:37.363Z,7.97
2023-01-25T13:38:27.822Z,5.43
2023-01-25T13:41:15.560Z,6.75
2023-01-25T13:43:49.464Z,6.20
2023-01-25T13:46:26.014Z,11.27
2023-01-25T13:49:04.893Z,5.32
2023-01-25T13:51:42.252Z,8.18
2023-01-25T13:54:18.712Z,6.53
2023-01-25T13:56:49.231Z,8.30
2023-01-25T13:59:30.185Z,10.90
2023-01-25T14:02:01.806Z,7.43
2023-01-25T14:04:33.607Z,8.07
2023-01-25T14:07:10.180Z,10.93
2023-01-25T14:09:40.773Z,9.23
2023-01-25T14:12:13.884Z,8.10
2023-01-25T14:14:50.011Z,9.40
2023-01-25T14:17:23.703Z,8.95
2023-01-25T14:19:57.219Z,6.50
2023-01-25T14:22:32.000Z,8.37
2023-01-25T14:25:07.982Z,7.68
2023-01-25T14:27:43.922Z,7.85
2023-01-25T14:30:37.010Z,7.53
2023-01-25T14:33:20.436Z,9.75
2023-01-25T14:35:57.375Z,9.23
2023-01-25T14:38:37.439Z,7.60
2023-01-25T14:41:15.434Z,8.07
2023-01-25T14:43:47.359Z,7.85
2023-01-25T14:46:26.185Z,11.95
2023-01-25T14:49:10.242Z,7.82
2023-01-25T14:51:46.474Z,6.03
2023-01-25T14:54:25.863Z,6.10
2023-01-25T14:57:00.915Z,6.13
2023-01-25T14:59:35.374Z,7.50
2023-01-25T15:02:19.653Z,8.65
2023-01-25T15:05:11.097Z,7.85
2023-01-25T15:07:47.643Z,8.60
2023-01-25T15:10:24.887Z,12.00
2023-01-25T15:13:12.744Z,8.90
2023-01-25T15:15:55.092Z,10.75
2023-01-25T15:18:46.870Z,7.88
2023-01-25T15:21:18.381Z,10.77
2023-01-25T15:23:50.950Z,8.05
2023-01-25T15:26:26.852Z,8.77
2023-01-25T15:28:58.979Z,9.40
2023-01-25T15:31:32.120Z,12.43
2023-01-25T15:34:03.517Z,13.63
2023-01-25T15:36:35.082Z,8.38
2023-01-25T15:39:05.550Z,7.43
2023-01-25T15:41:38.283Z,10.02
2023-01-25T15:44:08.795Z,7.70
2023-01-25T15:46:42.660Z,6.50
2023-01-25T15:49:24.975Z,11.07
2023-01-25T15:51:55.725Z,9.25
2023-01-25T15:54:27.065Z,7.90
2023-01-25T15:57:03.497Z,8.65
2023-01-25T15:59:34.129Z,7.00
2023-01-25T16:02:04.730Z,10.38
2023-01-25T16:04:35.089Z,8.88
2023-01-25T16:07:05.267Z,7.60
2023-01-25T16:09:35.688Z,8.45
2023-01-25T16:12:09.201Z,8.18
2023-01-25T16:14:39.801Z,8.68
2023-01-25T16:17:22.807Z,11.00
2023-01-25T16:19:55.564Z,10.18
2023-01-25T16:22:28.229Z,8.13
2023-01-25T16:25:01.733Z,9.63
2023-01-25T16:27:36.032Z,8.85
2023-01-25T16:30:11.124Z,10.38
2023-01-25T16:35:12.873Z,11.20
2023-01-25T16:37:45.370Z,9.63
2023-01-25T16:40:28.787Z,8.90
2023-01-25T16:43:10.794Z,8.20
2023-01-25T16:45:41.805Z,7.68
2023-01-25T16:48:17.344Z,8.57
2023-01-25T16:50:47.832Z,10.50
2023-01-25T16:53:18.032Z,9.55
2023-01-25T16:55:50.058Z,8.65
2023-01-25T16:58:25.679Z,9.05
2023-01-25T17:00:56.125Z,7.28
2023-01-25T17:03:29.392Z,8.30
2023-01-25T17:06:01.202Z,10.43
2023-01-25T17:08:31.696Z,10.20
2023-01-25T17:11:08.288Z,7.65
2023-01-25T17:13:41.233Z,7.90
2023-01-25T17:16:11.813Z,8.77
2023-01-25T17:18:42.648Z,9.45
2023-01-25T17:21:18.055Z,7.15
2023-01-25T17:23:48.472Z,6.18
2023-01-25T17:26:20.906Z,7.57
2023-01-25T17:28:54.395Z,6.70
2023-01-25T17:31:27.726Z,6.97
2023-01-25T17:33:58.892Z,6.32
2023-01-25T17:36:29.676Z,8.25
2023-01-25T17:39:05.143Z,5.70
2023-01-25T17:41:36.511Z,8.35
2023-01-25T17:44:09.687Z,6.80
2023-01-25T17:46:40.319Z,6.03
2023-01-25T17:49:14.711Z,10.35
2023-01-25T17:51:45.958Z,6.53
2023-01-25T17:54:16.645Z,8.40
2023-01-25T17:56:47.050Z,8.80
2023-01-25T17:59:21.779Z,8.23
2023-01-25T18:01:52.355Z,8.02
2023-01-25T18:04:23.417Z,9.43
2023-01-25T18:06:54.042Z,5.63
2023-01-25T18:09:25.252Z,7.43
2023-01-25T18:11:56.171Z,4.95
2023-01-25T18:14:29.597Z,7.53
2023-01-25T18:17:00.685Z,8.80
2023-01-25T18:19:33.087Z,9.02
2023-01-25T18:22:03.758Z,7.18
2023-01-25T18:24:36.320Z,4.63
2023-01-25T18:27:09.451Z,5.22
2023-01-25T18:29:57.782Z,9.15
2023-01-25T18:32:28.341Z,6.53
2023-01-25T18:34:59.052Z,5.70
2023-01-25T18:37:35.920Z,6.78
2023-01-25T18:40:08.492Z,7.22
2023-01-25T18:42:39.369Z,4.60
2023-01-25T18:45:15.811Z,6.38
2023-01-25T18:47:49.866Z,7.18
2023-01-25T18:50:21.704Z,5.38
2023-01-25T18:52:52.109Z,4.82
2023-01-25T18:55:22.660Z,5.30
2023-01-25T18:57:52.981Z,5.20
2023-01-25T19:00:27.642Z,5.75
2023-01-25T19:02:59.909Z,7.07
2023-01-25T19:05:30.498Z,5.72
2023-01-25T19:08:01.882Z,6.22
2023-01-25T19:10:34.070Z,8.05
2023-01-25T19:13:04.730Z,10.93
2023-01-25T19:15:37.904Z,9.85
2023-01-25T19:18:11.554Z,9.40
2023-01-25T19:20:46.029Z,7.88
2023-01-25T19:23:16.847Z,6.28
2023-01-25T19:25:47.960Z,7.53
2023-01-25T19:28:21.917Z,8.85
2023-01-25T19:30:56.012Z,8.55
2023-01-25T19:36:07.490Z,12.23
2023-01-25T19:38:42.060Z,11.68
2023-01-25T19:41:14.900Z,12.35
2023-01-25T19:43:48.460Z,14.05
2023-01-25T19:48:55.531Z,12.03
2023-01-25T19:51:28.139Z,12.05
2023-01-25T19:54:01.091Z,10.40
2023-01-25T19:56:37.061Z,13.95
2023-01-25T19:59:13.843Z,11.93
2023-01-25T20:01:47.899Z,12.90
2023-01-25T20:04:21.107Z,5.78
2023-01-25T20:06:53.036Z,7.32
2023-01-25T20:09:28.227Z,12.93
2023-01-25T20:12:00.763Z,16.73
2023-01-25T20:14:31.375Z,18.58
2023-01-25T20:17:05.121Z,20.65
2023-01-25T20:19:37.911Z,10.40
2023-01-25T20:22:10.257Z,9.60
2023-01-25T20:24:40.749Z,9.95
2023-01-25T20:27:13.362Z,10.32
2023-01-25T20:29:45.120Z,7.78
2023-01-25T20:32:31.982Z,8.05
2023-01-25T20:35:06.292Z,8.27
2023-01-25T20:37:37.119Z,7.75
2023-01-25T20:40:12.821Z,9.05
2023-01-25T20:42:47.327Z,9.07
2023-01-25T20:45:18.536Z,7.68
2023-01-25T20:47:51.862Z,11.18
2023-01-25T20:50:24.021Z,7.38
2023-01-25T20:52:54.380Z,8.55
2023-01-25T20:55:24.923Z,8.65
2023-01-25T20:57:55.308Z,7.82
2023-01-25T21:00:27.846Z,9.98
2023-01-25T21:03:00.635Z,8.68
2023-01-25T21:05:32.039Z,8.75
2023-01-25T21:08:02.431Z,7.20
2023-01-25T21:10:33.444Z,8.88
2023-01-25T21:13:03.633Z,8.35
2023-01-25T21:15:34.649Z,8.45
2023-01-25T21:18:08.208Z,7.82
2023-01-25T21:20:38.831Z,8.65
2023-01-25T21:23:09.435Z,7.32
2023-01-25T21:25:40.465Z,7.07
2023-01-25T21:28:12.429Z,7.25
2023-01-25T21:30:42.947Z,9.40
2023-01-25T21:33:16.057Z,6.65
2023-01-25T21:35:53.921Z,7.88
2023-01-25T21:38:30.526Z,9.93
2023-01-25T21:41:03.730Z,6.78
2023-01-25T21:43:56.161Z,9.63
2023-01-25T21:46:25.883Z,7.18
2023-01-25T21:49:13.118Z,6.80
2023-01-25T21:51:49.701Z,6.53
2023-01-25T21:54:21.574Z,7.28
2023-01-25T21:56:56.873Z,7.35
2023-01-25T21:59:27.810Z,7.38
2023-01-25T22:01:59.019Z,7.38
2023-01-25T22:04:36.161Z,7.60
2023-01-25T22:07:06.543Z,7.30
2023-01-25T22:09:36.843Z,7.82
2023-01-25T22:12:07.311Z,7.85
2023-01-25T22:14:40.917Z,7.93
2023-01-25T22:17:11.183Z,8.05
2023-01-25T22:19:44.585Z,5.95
2023-01-25T22:22:14.815Z,7.35
2023-01-25T22:24:45.085Z,10.57
2023-01-25T22:27:33.548Z,8.18
2023-01-25T22:30:04.551Z,7.63
2023-01-25T22:32:36.221Z,8.60
2023-01-25T22:35:10.570Z,8.05
2023-01-25T22:37:40.893Z,8.00
2023-01-25T22:40:18.532Z,8.43
2023-01-25T22:42:49.286Z,8.18
2023-01-25T22:45:19.595Z,10.88
2023-01-25T22:47:49.712Z,8.73
2023-01-25T22:50:24.861Z,7.78
2023-01-25T22:52:55.137Z,7.85
2023-01-25T22:55:25.533Z,8.85
2023-01-25T22:57:55.830Z,8.75
2023-01-25T23:00:27.240Z,10.63
2023-01-25T23:02:57.594Z,9.82
2023-01-25T23:05:30.778Z,8.52
2023-01-25T23:08:00.975Z,9.23
2023-01-25T23:10:32.255Z,7.75
2023-01-25T23:13:02.450Z,8.25
2023-01-25T23:15:32.761Z,8.35
2023-01-25T23:18:15.520Z,7.35
2023-01-25T23:20:48.631Z,8.38
2023-01-25T23:23:18.915Z,6.28
2023-01-25T23:25:49.859Z,8.35
2023-01-25T23:28:20.220Z,8.88
2023-01-25T23:30:50.634Z,9.27
2023-01-25T23:33:21.000Z,8.18
2023-01-25T23:35:55.189Z,6.80
2023-01-25T23:38:25.412Z,7.20
2023-01-25T23:40:55.706Z,7.47
2023-01-25T23:43:26.654Z,7.10
2023-01-25T23:45:56.807Z,8.32
2023-01-25T23:48:27.118Z,6.78
2023-01-25T23:51:00.784Z,6.18
2023-01-25T23:53:31.844Z,7.35
2023-01-25T23:56:06.269Z,8.05
2023-01-25T23:58:38.518Z,6.53
